Terminal Aerodrome Forecast
Issued by NWS Paducah, KY

Home | Current Version | Previous Version | Text Only | Print | Product List | Glossary On
Versions: 1 2 3 4 5 6 7 8 9 10 11 12
000
FTUS43 KPAH 312325
TAFPAH
TAF
KPAH 312325Z 0100/0124 00000KT P6SM SCT050 SCT250
     FM011000 00000KT 5SM BR SCT050 BKN200
     FM011300 23005KT P6SM SCT060 BKN250
     FM011700 26005KT P6SM SCT040 BKN100 PROB30 0118/0124 3SM TSRA
      BKN030CB=

USA.gov is the U.S. government's official web portal to all federal, state and local government web resources and services.